createdAt,value
2018-06-19T00:00:00.778Z,34.80
2018-06-19T00:02:29.243Z,35.10
2018-06-19T00:04:57.952Z,35.80
2018-06-19T00:07:26.302Z,35.10
2018-06-19T00:09:54.820Z,35.10
2018-06-19T00:12:23.329Z,34.90
2018-06-19T00:14:51.776Z,34.70
2018-06-19T00:17:20.313Z,34.80
2018-06-19T00:19:51.284Z,34.80
2018-06-19T00:22:19.720Z,34.80
2018-06-19T00:24:48.096Z,35.00
2018-06-19T00:27:16.628Z,35.10
2018-06-19T00:29:45.018Z,34.90
2018-06-19T00:32:13.387Z,35.00
2018-06-19T00:34:41.930Z,35.10
2018-06-19T00:37:10.324Z,35.10
2018-06-19T00:39:38.690Z,35.10
2018-06-19T00:42:07.062Z,35.50
2018-06-19T00:44:35.586Z,35.30
2018-06-19T00:47:03.968Z,35.60
2018-06-19T00:49:32.413Z,35.60
2018-06-19T00:52:00.867Z,35.30
2018-06-19T00:54:29.272Z,35.00
2018-06-19T00:56:59.071Z,35.10
2018-06-19T00:59:27.891Z,35.10
2018-06-19T01:01:57.941Z,35.00
2018-06-19T01:04:26.354Z,35.10
2018-06-19T01:06:54.723Z,34.70
2018-06-19T01:09:23.119Z,35.10
2018-06-19T01:11:51.527Z,35.60
2018-06-19T01:14:19.901Z,35.40
2018-06-19T01:16:48.308Z,35.00
2018-06-19T01:19:16.688Z,35.00
2018-06-19T01:21:45.060Z,35.10
2018-06-19T01:24:13.490Z,35.00
2018-06-19T01:26:41.876Z,35.90
2018-06-19T01:29:10.342Z,35.40
2018-06-19T01:31:38.794Z,35.50
2018-06-19T01:34:07.150Z,35.50
2018-06-19T01:36:35.527Z,35.50
2018-06-19T01:39:05.832Z,35.50
2018-06-19T01:41:34.297Z,35.50
2018-06-19T01:44:02.692Z,35.50
2018-06-19T01:46:31.106Z,35.20
2018-06-19T01:48:59.449Z,35.50
2018-06-19T01:51:27.820Z,35.20
2018-06-19T01:53:56.265Z,35.20
2018-06-19T01:56:24.696Z,35.20
2018-06-19T01:58:53.128Z,35.10
2018-06-19T02:01:21.538Z,35.50
2018-06-19T02:03:50.100Z,35.40
2018-06-19T02:06:18.454Z,35.20
2018-06-19T02:08:46.790Z,35.40
2018-06-19T02:11:15.244Z,35.50
2018-06-19T02:13:43.733Z,35.50
2018-06-19T02:16:12.172Z,35.50
2018-06-19T02:18:40.598Z,35.50
2018-06-19T02:21:08.944Z,35.50
2018-06-19T02:23:37.376Z,35.50
2018-06-19T02:26:05.730Z,35.50
2018-06-19T02:28:34.078Z,35.50
2018-06-19T02:31:02.540Z,35.50
2018-06-19T02:33:30.967Z,35.50
2018-06-19T02:35:59.404Z,35.50
2018-06-19T02:38:27.806Z,35.50
2018-06-19T02:40:56.201Z,35.50
2018-06-19T02:43:24.564Z,35.50
2018-06-19T02:45:52.935Z,35.50
2018-06-19T02:48:21.405Z,35.50
2018-06-19T02:50:49.793Z,35.50
2018-06-19T02:53:18.220Z,35.50
2018-06-19T02:55:46.761Z,35.50
2018-06-19T02:58:15.125Z,35.50
2018-06-19T03:00:43.543Z,35.50
2018-06-19T03:03:11.930Z,35.50
2018-06-19T03:05:40.343Z,35.50
2018-06-19T03:08:08.764Z,35.50
2018-06-19T03:10:37.180Z,35.40
2018-06-19T03:13:05.677Z,35.50
2018-06-19T03:15:34.148Z,35.40
2018-06-19T03:18:02.514Z,35.40
2018-06-19T03:20:30.902Z,35.50
2018-06-19T03:22:59.300Z,35.40
2018-06-19T03:25:27.788Z,35.40
2018-06-19T03:27:56.126Z,35.40
2018-06-19T03:30:24.476Z,35.50
2018-06-19T03:32:52.894Z,35.40
2018-06-19T03:35:21.300Z,35.40
2018-06-19T03:37:49.716Z,35.40
2018-06-19T03:40:18.102Z,35.40
2018-06-19T03:42:46.470Z,35.40
2018-06-19T03:45:14.972Z,35.40
2018-06-19T03:47:43.386Z,35.40
2018-06-19T03:50:11.918Z,35.40
2018-06-19T03:52:40.372Z,35.40
2018-06-19T03:55:08.820Z,35.40
2018-06-19T03:57:37.158Z,35.40
2018-06-19T04:00:05.608Z,35.40
2018-06-19T04:02:34.155Z,35.40
2018-06-19T04:05:02.720Z,35.40
2018-06-19T04:07:31.290Z,35.40
2018-06-19T04:09:59.721Z,35.40
2018-06-19T04:12:28.058Z,35.40
2018-06-19T04:14:56.454Z,35.40
2018-06-19T04:17:27.089Z,35.40
2018-06-19T04:19:57.060Z,35.40
2018-06-19T04:22:26.518Z,35.40
2018-06-19T04:24:55.260Z,35.40
2018-06-19T04:27:23.780Z,35.40
2018-06-19T04:29:52.363Z,35.40
2018-06-19T04:32:20.912Z,35.40
2018-06-19T04:34:49.267Z,35.40
2018-06-19T04:37:17.592Z,35.40
2018-06-19T04:39:46.054Z,35.40
2018-06-19T04:42:14.481Z,35.40
2018-06-19T04:44:42.921Z,35.40
2018-06-19T04:47:11.316Z,35.40
2018-06-19T04:49:39.861Z,35.40
2018-06-19T04:52:08.212Z,35.40
2018-06-19T04:54:36.584Z,35.50
2018-06-19T04:57:05.363Z,35.50
2018-06-19T04:59:33.831Z,35.50
2018-06-19T05:02:02.246Z,35.80
2018-06-19T05:04:30.743Z,36.20
2018-06-19T05:06:59.091Z,35.90
2018-06-19T05:09:27.475Z,35.60
2018-06-19T05:11:55.857Z,36.00
2018-06-19T05:14:24.241Z,37.40
2018-06-19T05:16:52.696Z,36.50
2018-06-19T05:19:21.129Z,37.00
2018-06-19T05:21:49.609Z,36.70
2018-06-19T05:24:17.999Z,36.70
2018-06-19T05:26:46.418Z,36.80
2018-06-19T05:29:14.812Z,37.00
2018-06-19T05:31:43.317Z,37.10
2018-06-19T05:34:11.711Z,37.00
2018-06-19T05:36:40.101Z,37.20
2018-06-19T05:39:10.173Z,37.30
2018-06-19T05:41:38.727Z,37.40
2018-06-19T05:44:08.065Z,37.50
2018-06-19T05:46:37.273Z,37.90
2018-06-19T05:49:05.910Z,37.90
2018-06-19T05:51:34.497Z,37.80
2018-06-19T05:54:03.017Z,37.80
2018-06-19T05:56:31.356Z,38.00
2018-06-19T05:58:59.732Z,38.10
2018-06-19T06:01:28.137Z,38.20
2018-06-19T06:03:56.527Z,38.10
2018-06-19T06:06:25.009Z,38.60
2018-06-19T06:08:53.445Z,39.10
2018-06-19T06:11:22.010Z,39.50
2018-06-19T06:13:51.365Z,39.30
2018-06-19T06:16:19.967Z,39.70
2018-06-19T06:18:48.416Z,40.20
2018-06-19T06:21:16.868Z,41.00
2018-06-19T06:23:45.393Z,40.90
2018-06-19T06:26:13.757Z,40.90
2018-06-19T06:28:42.287Z,40.90
2018-06-19T06:31:10.856Z,40.90
2018-06-19T06:33:40.156Z,41.40
2018-06-19T06:38:36.608Z,41.00
2018-06-19T06:41:05.252Z,41.00
2018-06-19T06:43:33.609Z,40.90
2018-06-19T06:46:01.978Z,40.80
2018-06-19T06:48:30.391Z,40.80
2018-06-19T06:50:59.191Z,40.80
2018-06-19T06:53:27.610Z,40.80
2018-06-19T06:55:56.008Z,41.30
2018-06-19T06:58:24.612Z,41.00
2018-06-19T07:00:53.064Z,41.60
2018-06-19T07:03:22.366Z,41.20
2018-06-19T07:05:51.389Z,41.30
2018-06-19T07:08:19.839Z,42.20
2018-06-19T07:10:48.817Z,42.10
2018-06-19T07:13:17.377Z,42.20
2018-06-19T07:15:46.005Z,42.00
2018-06-19T07:18:14.261Z,42.20
2018-06-19T07:20:42.707Z,42.40
2018-06-19T07:23:11.066Z,41.40
2018-06-19T07:25:39.515Z,41.60
2018-06-19T07:28:07.924Z,41.80
2018-06-19T07:30:36.407Z,41.70
2018-06-19T07:33:04.838Z,41.50
2018-06-19T07:38:01.604Z,41.40
2018-06-19T07:40:31.018Z,42.30
2018-06-19T07:43:01.410Z,42.10
2018-06-19T07:45:29.901Z,42.20
2018-06-19T07:47:58.329Z,42.10
2018-06-19T07:50:26.788Z,41.90
2018-06-19T07:52:55.217Z,42.20
2018-06-19T07:55:23.731Z,42.50
2018-06-19T07:57:52.378Z,42.90
2018-06-19T08:00:20.979Z,42.50
2018-06-19T08:02:51.419Z,42.10
2018-06-19T08:05:19.921Z,41.50
2018-06-19T08:07:48.302Z,41.00
2018-06-19T08:10:16.708Z,41.00
2018-06-19T08:12:45.601Z,41.00
2018-06-19T08:15:14.258Z,40.90
2018-06-19T08:17:42.796Z,40.90
2018-06-19T08:20:11.720Z,41.00
2018-06-19T08:22:40.358Z,40.90
2018-06-19T08:25:08.707Z,41.00
2018-06-19T08:27:37.093Z,41.00
2018-06-19T08:30:05.691Z,41.00
2018-06-19T08:32:34.104Z,40.80
2018-06-19T08:35:02.514Z,41.00
2018-06-19T08:37:31.146Z,41.00
2018-06-19T08:39:59.820Z,41.00
2018-06-19T08:42:28.284Z,41.20
2018-06-19T08:44:56.726Z,41.20
2018-06-19T08:47:25.120Z,41.30
2018-06-19T08:49:53.556Z,41.30
2018-06-19T08:52:21.957Z,41.40
2018-06-19T08:54:50.388Z,41.40
2018-06-19T08:57:18.869Z,41.40
2018-06-19T08:59:47.242Z,41.40
2018-06-19T09:02:15.712Z,41.40
2018-06-19T09:04:44.076Z,41.40
2018-06-19T09:07:12.610Z,41.40
2018-06-19T09:09:41.057Z,40.80
2018-06-19T09:12:09.490Z,40.80
2018-06-19T09:14:37.934Z,40.60
2018-06-19T09:17:06.363Z,40.60
2018-06-19T09:19:34.765Z,40.40
2018-06-19T09:22:03.247Z,40.30
2018-06-19T09:24:31.620Z,40.30
2018-06-19T09:27:00.031Z,40.10
2018-06-19T09:29:28.424Z,40.10
2018-06-19T09:31:56.942Z,40.20
2018-06-19T09:34:25.390Z,40.00
2018-06-19T09:36:53.800Z,40.00
2018-06-19T09:39:22.283Z,40.10
2018-06-19T09:41:50.696Z,40.00
2018-06-19T09:44:19.296Z,40.10
2018-06-19T09:46:47.668Z,39.80
2018-06-19T09:49:16.070Z,39.90
2018-06-19T09:51:44.466Z,39.80
2018-06-19T09:54:13.003Z,39.80
2018-06-19T09:56:41.602Z,39.80
2018-06-19T09:59:10.221Z,39.90
2018-06-19T10:01:38.676Z,40.00
2018-06-19T10:04:07.116Z,40.00
2018-06-19T10:06:35.570Z,40.10
2018-06-19T10:09:05.883Z,40.60
2018-06-19T10:11:34.424Z,41.80
2018-06-19T10:14:03.138Z,41.80
2018-06-19T10:16:31.564Z,41.80
2018-06-19T10:19:00.021Z,41.80
2018-06-19T10:21:28.420Z,41.80
2018-06-19T10:23:56.758Z,41.80
2018-06-19T10:26:25.258Z,41.70
2018-06-19T10:28:53.674Z,41.90
2018-06-19T10:31:22.000Z,41.70
2018-06-19T10:33:50.450Z,41.30
2018-06-19T10:36:18.850Z,41.30
2018-06-19T10:38:47.166Z,41.90
2018-06-19T10:41:15.556Z,41.80
2018-06-19T10:43:43.929Z,41.40
2018-06-19T10:46:12.287Z,41.10
2018-06-19T10:48:40.754Z,41.20
2018-06-19T10:51:09.184Z,41.10
2018-06-19T10:53:38.092Z,41.10
2018-06-19T10:56:06.579Z,41.10
2018-06-19T10:58:34.966Z,41.00
2018-06-19T11:01:03.359Z,40.80
2018-06-19T11:03:31.780Z,40.80
2018-06-19T11:06:00.148Z,40.90
2018-06-19T11:08:28.571Z,40.90
2018-06-19T11:10:57.064Z,40.80
2018-06-19T11:13:25.478Z,40.60
2018-06-19T11:15:53.991Z,41.00
2018-06-19T11:18:22.346Z,41.20
2018-06-19T11:20:50.812Z,41.00
2018-06-19T11:23:19.225Z,40.80
2018-06-19T11:25:47.748Z,41.30
2018-06-19T11:28:16.173Z,41.00
2018-06-19T11:30:44.635Z,40.80
2018-06-19T11:35:41.202Z,40.80
2018-06-19T11:38:09.746Z,40.60
2018-06-19T11:40:38.136Z,40.60
2018-06-19T11:43:06.696Z,40.50
2018-06-19T11:45:35.245Z,40.40
2018-06-19T11:48:03.832Z,40.30
2018-06-19T11:50:32.275Z,40.30
2018-06-19T11:53:00.666Z,40.10
2018-06-19T11:57:57.090Z,39.90
2018-06-19T12:00:25.706Z,39.90
2018-06-19T12:02:54.033Z,39.90
2018-06-19T12:05:22.497Z,39.90
2018-06-19T12:07:50.941Z,40.60
2018-06-19T12:10:19.554Z,39.70
2018-06-19T12:12:48.201Z,39.70
2018-06-19T12:15:16.639Z,39.60
2018-06-19T12:17:45.001Z,39.60
2018-06-19T12:20:13.578Z,39.60
2018-06-19T12:22:41.952Z,39.70
2018-06-19T12:25:10.657Z,39.60
2018-06-19T12:27:39.243Z,39.60
2018-06-19T12:30:07.613Z,39.50
2018-06-19T12:32:36.077Z,39.40
2018-06-19T12:35:04.492Z,39.60
2018-06-19T12:37:32.868Z,39.50
2018-06-19T12:40:01.495Z,39.40
2018-06-19T12:42:30.002Z,39.30
2018-06-19T12:44:58.398Z,39.30
2018-06-19T12:47:26.833Z,39.20
2018-06-19T12:51:39.966Z,39.40
2018-06-19T12:54:19.736Z,39.20
2018-06-19T12:56:48.165Z,39.20
2018-06-19T12:59:16.619Z,39.30
2018-06-19T13:01:44.971Z,39.10
2018-06-19T13:04:24.827Z,39.20
2018-06-19T13:06:53.215Z,39.20
2018-06-19T13:09:21.727Z,39.20
2018-06-19T13:11:50.147Z,39.20
2018-06-19T13:14:29.777Z,39.20
2018-06-19T13:17:09.466Z,39.20
2018-06-19T13:19:49.267Z,39.10
2018-06-19T13:22:17.751Z,39.20
2018-06-19T13:24:46.189Z,39.20
2018-06-19T13:27:14.928Z,39.20
2018-06-19T13:29:56.048Z,39.20
2018-06-19T13:32:24.976Z,39.10
2018-06-19T13:34:53.653Z,39.10
2018-06-19T13:37:22.189Z,39.10
2018-06-19T13:41:34.773Z,39.10
2018-06-19T13:44:14.766Z,39.10
2018-06-19T13:46:43.219Z,39.90
2018-06-19T13:49:11.678Z,39.10
2018-06-19T13:51:40.029Z,39.00
2018-06-19T13:54:08.403Z,38.60
2018-06-19T13:57:13.237Z,38.90
2018-06-19T13:59:42.030Z,38.90
2018-06-19T14:02:10.430Z,39.00
2018-06-19T14:04:38.832Z,39.00
2018-06-19T14:09:48.040Z,38.80
2018-06-19T14:12:25.061Z,38.80
2018-06-19T14:14:55.421Z,38.80
2018-06-19T14:17:24.902Z,38.90
2018-06-19T14:19:54.479Z,38.90
2018-06-19T14:22:23.593Z,39.00
2018-06-19T14:27:20.127Z,38.80
2018-06-19T14:29:48.541Z,38.80
2018-06-19T14:32:16.938Z,38.60
2018-06-19T14:34:45.567Z,39.10
2018-06-19T14:37:13.949Z,38.90
2018-06-19T14:39:42.366Z,38.90
2018-06-19T14:42:11.038Z,38.80
2018-06-19T14:44:39.579Z,39.00
2018-06-19T14:47:07.919Z,39.00
2018-06-19T14:49:36.570Z,38.90
2018-06-19T14:52:05.052Z,38.90
2018-06-19T14:57:02.212Z,39.00
2018-06-19T14:59:30.811Z,39.00
2018-06-19T15:01:59.194Z,39.70
2018-06-19T15:04:27.639Z,39.00
2018-06-19T15:06:56.056Z,39.10
2018-06-19T15:09:24.467Z,39.00
2018-06-19T15:11:52.804Z,39.00
2018-06-19T15:16:49.432Z,39.00
2018-06-19T15:19:17.876Z,39.00
2018-06-19T15:21:46.628Z,38.90
2018-06-19T15:26:43.263Z,38.80
2018-06-19T15:29:11.639Z,38.80
2018-06-19T15:31:40.219Z,38.80
2018-06-19T15:34:09.214Z,38.70
2018-06-19T15:36:37.661Z,38.70
2018-06-19T15:39:09.758Z,38.80
2018-06-19T15:41:38.441Z,38.60
2018-06-19T15:44:07.287Z,38.60
2018-06-19T15:46:36.021Z,38.60
2018-06-19T15:49:04.917Z,38.50
2018-06-19T15:51:33.699Z,38.40
2018-06-19T15:56:30.985Z,38.30
2018-06-19T15:58:59.400Z,38.30
2018-06-19T16:01:27.807Z,38.40
2018-06-19T16:03:56.345Z,38.70
2018-06-19T16:06:24.686Z,41.80
2018-06-19T16:08:53.105Z,40.40
2018-06-19T16:11:21.510Z,42.40
2018-06-19T16:13:50.003Z,42.40
2018-06-19T16:16:18.420Z,39.80
2018-06-19T16:18:46.863Z,39.90
2018-06-19T16:21:15.306Z,42.00
2018-06-19T16:23:43.783Z,41.20
2018-06-19T16:26:12.143Z,40.20
2018-06-19T16:28:40.562Z,40.80
2018-06-19T16:31:09.036Z,40.80
2018-06-19T16:33:37.436Z,40.80
2018-06-19T16:36:06.005Z,42.40
2018-06-19T16:38:34.403Z,40.80
2018-06-19T16:41:02.766Z,40.50
2018-06-19T16:43:31.385Z,39.80
2018-06-19T16:45:59.844Z,39.30
2018-06-19T16:48:28.285Z,38.60
2018-06-19T16:53:24.881Z,39.50
2018-06-19T16:55:53.359Z,39.00
2018-06-19T16:58:21.929Z,38.50
2018-06-19T17:00:50.503Z,39.40
2018-06-19T17:03:19.097Z,38.80
2018-06-19T17:05:47.623Z,38.60
2018-06-19T17:08:16.013Z,39.20
2018-06-19T17:10:44.393Z,39.00
2018-06-19T17:13:12.831Z,38.30
2018-06-19T17:15:41.225Z,37.80
2018-06-19T17:18:09.756Z,38.00
2018-06-19T17:20:38.157Z,38.60
2018-06-19T17:23:06.667Z,39.30
2018-06-19T17:25:35.121Z,39.60
2018-06-19T17:28:03.565Z,39.10
2018-06-19T17:30:32.043Z,39.10
2018-06-19T17:33:00.457Z,39.50
2018-06-19T17:35:28.875Z,39.50
2018-06-19T17:37:57.508Z,39.00
2018-06-19T17:40:26.127Z,39.60
2018-06-19T17:42:54.590Z,38.90
2018-06-19T17:45:22.972Z,39.70
2018-06-19T17:47:51.791Z,40.60
2018-06-19T17:50:20.226Z,40.50
2018-06-19T17:52:48.628Z,40.40
2018-06-19T17:55:17.019Z,40.50
2018-06-19T17:57:45.687Z,40.30
2018-06-19T18:00:14.088Z,40.20
2018-06-19T18:02:42.553Z,40.40
2018-06-19T18:05:10.923Z,40.40
2018-06-19T18:07:39.754Z,40.40
2018-06-19T18:10:08.223Z,40.30
2018-06-19T18:12:36.611Z,40.40
2018-06-19T18:17:33.427Z,40.90
2018-06-19T18:20:01.806Z,41.20
2018-06-19T18:22:30.511Z,42.30
2018-06-19T18:24:58.942Z,42.30
2018-06-19T18:27:27.381Z,42.30
2018-06-19T18:29:55.854Z,41.80
2018-06-19T18:32:24.624Z,42.30
2018-06-19T18:34:53.076Z,41.40
2018-06-19T18:37:21.562Z,41.30
2018-06-19T18:39:49.974Z,41.30
2018-06-19T18:42:18.586Z,41.10
2018-06-19T18:47:15.458Z,41.20
2018-06-19T18:49:44.570Z,41.20
2018-06-19T18:52:12.997Z,41.10
2018-06-19T18:54:41.452Z,41.10
2018-06-19T18:57:09.977Z,41.20
2018-06-19T19:02:06.643Z,41.10
2018-06-19T19:04:35.091Z,41.10
2018-06-19T19:07:03.494Z,41.20
2018-06-19T19:09:31.901Z,41.20
2018-06-19T19:12:00.356Z,41.90
2018-06-19T19:14:33.034Z,42.00
2018-06-19T19:17:06.745Z,41.70
2018-06-19T19:19:35.200Z,41.70
2018-06-19T19:22:03.604Z,41.50
2018-06-19T19:24:32.027Z,41.40
2018-06-19T19:27:05.996Z,41.20
2018-06-19T19:29:40.066Z,41.10
2018-06-19T19:32:08.491Z,41.10
2018-06-19T19:34:37.096Z,41.00
2018-06-19T19:37:10.910Z,40.90
2018-06-19T19:39:39.276Z,40.90
2018-06-19T19:42:07.762Z,40.70
2018-06-19T19:44:36.403Z,40.90
2018-06-19T19:47:10.338Z,40.80
2018-06-19T19:49:38.707Z,40.90
2018-06-19T19:52:07.124Z,40.70
2018-06-19T19:54:35.722Z,40.70
2018-06-19T19:57:09.472Z,40.70
2018-06-19T19:59:37.880Z,40.60
2018-06-19T20:02:06.358Z,40.50
2018-06-19T20:04:34.832Z,40.50
2018-06-19T20:07:03.231Z,40.40
2018-06-19T20:09:31.574Z,40.40
2018-06-19T20:12:00.084Z,40.40
2018-06-19T20:14:28.693Z,40.40
2018-06-19T20:16:57.077Z,40.40
2018-06-19T20:19:25.423Z,40.40
2018-06-19T20:21:53.835Z,40.30
2018-06-19T20:24:22.322Z,40.20
2018-06-19T20:26:50.843Z,40.30
2018-06-19T20:29:19.784Z,40.30
2018-06-19T20:31:48.498Z,40.30
2018-06-19T20:34:16.996Z,40.40
2018-06-19T20:36:45.663Z,40.70
2018-06-19T20:39:14.098Z,40.60
2018-06-19T20:41:43.522Z,40.60
2018-06-19T20:44:12.133Z,40.60
2018-06-19T20:46:40.657Z,40.60
2018-06-19T20:49:09.063Z,40.50
2018-06-19T20:51:37.485Z,40.60
2018-06-19T20:54:05.912Z,40.50
2018-06-19T20:56:34.315Z,40.50
2018-06-19T20:59:02.687Z,40.60
2018-06-19T21:01:31.374Z,40.60
2018-06-19T21:04:00.258Z,40.60
2018-06-19T21:06:28.808Z,41.50
2018-06-19T21:08:57.317Z,40.70
2018-06-19T21:11:25.730Z,40.70
2018-06-19T21:16:22.268Z,40.70
2018-06-19T21:18:50.821Z,40.70
2018-06-19T21:21:20.352Z,40.80
2018-06-19T21:23:47.832Z,40.70
2018-06-19T21:26:16.214Z,40.80
2018-06-19T21:31:13.198Z,40.80
2018-06-19T21:33:41.840Z,40.80
2018-06-19T21:36:10.536Z,40.80
2018-06-19T21:38:39.094Z,40.90
2018-06-19T21:41:07.770Z,41.00
2018-06-19T21:43:36.381Z,40.90
2018-06-19T21:48:32.936Z,40.50
2018-06-19T21:51:01.409Z,40.40
2018-06-19T21:53:29.843Z,40.40
2018-06-19T21:55:58.245Z,40.10
2018-06-19T21:58:26.666Z,40.40
2018-06-19T22:00:55.236Z,40.60
2018-06-19T22:03:23.906Z,41.10
2018-06-19T22:05:52.518Z,41.60
2018-06-19T22:08:21.004Z,41.30
2018-06-19T22:10:49.345Z,41.00
2018-06-19T22:13:17.796Z,41.30
2018-06-19T22:15:46.305Z,41.30
2018-06-19T22:18:14.943Z,41.10
2018-06-19T22:20:43.469Z,41.40
2018-06-19T22:23:12.027Z,41.40
2018-06-19T22:25:40.385Z,41.40
2018-06-19T22:28:08.766Z,41.70
2018-06-19T22:30:37.300Z,42.00
2018-06-19T22:33:05.765Z,41.90
2018-06-19T22:35:34.729Z,42.10
2018-06-19T22:38:03.308Z,42.10
2018-06-19T22:40:31.736Z,42.10
2018-06-19T22:43:00.351Z,42.10
2018-06-19T22:45:28.772Z,42.80
2018-06-19T22:47:57.161Z,42.20
2018-06-19T22:50:25.706Z,42.20
2018-06-19T22:52:54.293Z,42.20
2018-06-19T22:57:50.760Z,42.20
2018-06-19T23:00:20.507Z,42.20
2018-06-19T23:02:48.919Z,42.20
2018-06-19T23:05:17.472Z,42.20
2018-06-19T23:07:45.961Z,42.20
2018-06-19T23:10:14.651Z,42.20
2018-06-19T23:15:11.263Z,42.20
2018-06-19T23:17:39.785Z,42.00
2018-06-19T23:20:08.301Z,42.10
2018-06-19T23:22:36.789Z,42.10
2018-06-19T23:25:05.204Z,41.80
2018-06-19T23:27:33.695Z,41.80
2018-06-19T23:30:02.106Z,41.70
2018-06-19T23:32:30.506Z,41.70
2018-06-19T23:34:58.922Z,41.70
2018-06-19T23:37:27.440Z,41.60
2018-06-19T23:39:56.017Z,42.00
2018-06-19T23:42:24.418Z,41.80
2018-06-19T23:44:52.858Z,41.60
2018-06-19T23:47:21.263Z,41.70
2018-06-19T23:49:49.718Z,41.70
2018-06-19T23:52:18.268Z,41.70
2018-06-19T23:54:46.724Z,41.70
2018-06-19T23:57:15.242Z,41.80
2018-06-19T23:59:43.662Z,41.80
